Hoegh Berlin — C6XQ4 — position and weather

sailwx.info

Track history (hours):
 
Tides and Currents Weather Stations Pressure Air Temp Water Temp Dewpoint Dewpoint Depression Visibility Wind Speed Wind Dir Waves Ship Positions

Hoegh Berlin

Last reported at 2018-Apr-07 06:41 UTC. Time now 2018-Apr-23 13:47 UTC.
Position N 30°54' E 032°19'.
Warning: this ship's position is 16 days out of date.

Length 228 m; draft 9 m.

Type: Cargo ship. MMSI: 311019100.

Date/timePositionNaut miles runAvg speedWind from/ knotsBaromVisibWave heightAir tempDewpointWater temp
2018-Apr-07 06:41N 30°54' E 032°19'2 9.0
2018-Apr-07 06:27N 30°56' E 032°19'4 9.3
2018-Apr-07 06:00N 31°01' E 032°19'510.0
2018-Apr-07 05:30N 31°06' E 032°18'5 9.6
2018-Apr-07 05:01N 31°10' E 032°20'3 7.0
2018-Apr-07 04:31N 31°14' E 032°21'3 6.8
2018-Apr-07 04:01N 31°17' E 032°22'3 5.8
2018-Apr-07 03:26N 31°20' E 032°22'2 5.6
2018-Apr-07 03:01N 31°22' E 032°20'0 0.5
2018-Apr-07 02:30N 31°22' E 032°20'0 0.0
2018-Apr-06 23:51N 31°22' E 032°20'0 0.0
2018-Apr-06 23:27N 31°22' E 032°20'0 0.0
2018-Apr-06 22:15N 31°22' E 032°20'0 0.0
2018-Apr-06 21:51N 31°22' E 032°20'0 0.0
2018-Apr-06 21:24N 31°22' E 032°20'0 0.0
2018-Apr-06 21:00N 31°22' E 032°20'0 0.0
2018-Apr-06 20:30N 31°22' E 032°20'0 0.6
2018-Apr-06 20:00N 31°22' E 032°20'2 3.9
2018-Apr-06 19:30N 31°24' E 032°21'3 6.8
2018-Apr-06 19:00N 31°27' E 032°18'5 7.0
2018-Apr-06 18:21N 31°30' E 032°14'3 7.2
2018-Apr-06 17:57N 31°32' E 032°12'4 7.9
2018-Apr-06 17:30N 31°34' E 032°09'5 9.3
2018-Apr-06 17:00N 31°37' E 032°05'5 9.3
2018-Apr-06 16:30N 31°41' E 032°01'5 9.4
2018-Apr-06 16:00N 31°45' E 031°58'5 9.4
2018-Apr-06 15:30N 31°48' E 031°54'5 9.5
2018-Apr-06 15:00N 31°51' E 031°50'5 9.5
2018-Apr-06 14:30N 31°55' E 031°46'5 9.6
2018-Apr-06 14:00N 31°58' E 031°42'5 9.6
2018-Apr-06 13:30N 32°02' E 031°39'5 9.6
2018-Apr-06 13:00N 32°06' E 031°35'5 9.5
2018-Apr-06 12:30N 32°09' E 031°31'5 9.5
2018-Apr-06 12:00N 32°13' E 031°27'5 9.7
2018-Apr-06 11:30N 32°16' E 031°24'510.1
2018-Apr-06 11:00N 32°20' E 031°20'810.9
2018-Apr-06 10:18N 32°26' E 031°13'311.0
2018-Apr-06 10:00N 32°28' E 031°11'911.2
2018-Apr-06 09:11N 32°35' E 031°04'212.4
2018-Apr-06 09:00N 32°37' E 031°02'713.1
2018-Apr-06 08:30N 32°42' E 030°57'912.9
2018-Apr-06 07:47N 32°49' E 030°49'412.8
2018-Apr-06 07:30N 32°51' E 030°46'612.6
2018-Apr-06 07:00N 32°56' E 030°41'612.5
2018-Apr-06 06:30N 33°01' E 030°36'914.1
2018-Apr-06 05:52N 33°08' E 030°30'715.7
2018-Apr-06 05:25N 33°12' E 030°24'715.7
2018-Apr-06 05:00N 33°17' E 030°18'816.0
2018-Apr-06 04:31N 33°23' E 030°12'8316.0
2018-Apr-05 23:20N 34°25' E 029°05'516.3
2018-Apr-05 23:00N 34°28' E 029°01'1816.3
2018-Apr-05 21:56N 34°41' E 028°46'716.4
2018-Apr-05 21:30N 34°47' E 028°41'816.3
2018-Apr-05 21:01N 34°53' E 028°34'816.2
2018-Apr-05 20:30N 34°59' E 028°28'816.1
2018-Apr-05 20:01N 35°05' E 028°21'816.3
2018-Apr-05 19:31N 35°11' E 028°14'816.4
2018-Apr-05 19:01N 35°17' E 028°08'16615.5
2018-Apr-05 08:17N 37°24' E 025°55'415.8
2018-Apr-05 08:00N 37°26' E 025°50'1115.8
2018-Apr-05 07:18N 37°36' E 025°45'516.0
2018-Apr-05 07:00N 37°41' E 025°43'816.1
2018-Apr-05 06:30N 37°48' E 025°39'12015.1
2018-Apr-04 22:33N 39°48' E 025°44'116.0
2018-Apr-04 22:28N 39°49' E 025°45'815.9
2018-Apr-04 21:57N 39°56' E 025°52'916.4
2018-Apr-04 21:23N 40°01' E 026°01'716.9
2018-Apr-04 20:58N 40°02' E 026°11'  
2018-Apr-02 11:35N 37°45' E 025°42'415.7
2018-Apr-02 11:21N 37°41' E 025°43'1115.7
2018-Apr-02 10:40N 37°31' E 025°48'316.1
2018-Apr-02 10:30N 37°29' E 025°49'41414.9
2018-Apr-01 06:46N 34°22' E 033°26'  
2018-Mar-28 23:52N 36°06' E 014°43'615.2
2018-Mar-28 23:28N 36°08' E 014°36'918.5
2018-Mar-28 23:00N 36°10' E 014°25'1020.1
2018-Mar-28 22:30N 36°13' E 014°14'917.6
2018-Mar-28 22:00N 36°17' E 014°04'919.3
2018-Mar-28 21:30N 36°21' E 013°53'917.7
2018-Mar-28 20:59N 36°25' E 013°42'  
Track history (hours):
 
Tides and Currents Weather Stations Pressure Air Temp Water Temp Dewpoint Dewpoint Depression Visibility Wind Speed Wind Dir Waves Ship Positions

Hoegh Berlin

Last reported at 2018-Apr-07 06:41 UTC. Time now 2018-Apr-23 13:47 UTC.
Position N 30°54' E 032°19'.
Warning: this ship's position is 16 days out of date.

Length 228 m; draft 9 m.

Type: Cargo ship. MMSI: 311019100.

Date/timePositionNaut miles runAvg speedWind from/ knotsBaromVisibWave heightAir tempDewpointWater temp
2018-Apr-07 06:41N 30°54' E 032°19'2 9.0
2018-Apr-07 06:27N 30°56' E 032°19'4 9.3
2018-Apr-07 06:00N 31°01' E 032°19'510.0
2018-Apr-07 05:30N 31°06' E 032°18'5 9.6
2018-Apr-07 05:01N 31°10' E 032°20'3 7.0
2018-Apr-07 04:31N 31°14' E 032°21'3 6.8
2018-Apr-07 04:01N 31°17' E 032°22'3 5.8
2018-Apr-07 03:26N 31°20' E 032°22'2 5.6
2018-Apr-07 03:01N 31°22' E 032°20'0 0.5
2018-Apr-07 02:30N 31°22' E 032°20'0 0.0
2018-Apr-06 23:51N 31°22' E 032°20'0 0.0
2018-Apr-06 23:27N 31°22' E 032°20'0 0.0
2018-Apr-06 22:15N 31°22' E 032°20'0 0.0
2018-Apr-06 21:51N 31°22' E 032°20'0 0.0
2018-Apr-06 21:24N 31°22' E 032°20'0 0.0
2018-Apr-06 21:00N 31°22' E 032°20'0 0.0
2018-Apr-06 20:30N 31°22' E 032°20'0 0.6
2018-Apr-06 20:00N 31°22' E 032°20'2 3.9
2018-Apr-06 19:30N 31°24' E 032°21'3 6.8
2018-Apr-06 19:00N 31°27' E 032°18'5 7.0
2018-Apr-06 18:21N 31°30' E 032°14'3 7.2
2018-Apr-06 17:57N 31°32' E 032°12'4 7.9
2018-Apr-06 17:30N 31°34' E 032°09'5 9.3
2018-Apr-06 17:00N 31°37' E 032°05'5 9.3
2018-Apr-06 16:30N 31°41' E 032°01'5 9.4
2018-Apr-06 16:00N 31°45' E 031°58'5 9.4
2018-Apr-06 15:30N 31°48' E 031°54'5 9.5
2018-Apr-06 15:00N 31°51' E 031°50'5 9.5
2018-Apr-06 14:30N 31°55' E 031°46'5 9.6
2018-Apr-06 14:00N 31°58' E 031°42'5 9.6
2018-Apr-06 13:30N 32°02' E 031°39'5 9.6
2018-Apr-06 13:00N 32°06' E 031°35'5 9.5
2018-Apr-06 12:30N 32°09' E 031°31'5 9.5
2018-Apr-06 12:00N 32°13' E 031°27'5 9.7
2018-Apr-06 11:30N 32°16' E 031°24'510.1
2018-Apr-06 11:00N 32°20' E 031°20'810.9
2018-Apr-06 10:18N 32°26' E 031°13'311.0
2018-Apr-06 10:00N 32°28' E 031°11'911.2
2018-Apr-06 09:11N 32°35' E 031°04'212.4
2018-Apr-06 09:00N 32°37' E 031°02'713.1
2018-Apr-06 08:30N 32°42' E 030°57'912.9
2018-Apr-06 07:47N 32°49' E 030°49'412.8
2018-Apr-06 07:30N 32°51' E 030°46'612.6
2018-Apr-06 07:00N 32°56' E 030°41'612.5
2018-Apr-06 06:30N 33°01' E 030°36'914.1
2018-Apr-06 05:52N 33°08' E 030°30'715.7
2018-Apr-06 05:25N 33°12' E 030°24'715.7
2018-Apr-06 05:00N 33°17' E 030°18'816.0
2018-Apr-06 04:31N 33°23' E 030°12'8316.0
2018-Apr-05 23:20N 34°25' E 029°05'516.3
2018-Apr-05 23:00N 34°28' E 029°01'1816.3
2018-Apr-05 21:56N 34°41' E 028°46'716.4
2018-Apr-05 21:30N 34°47' E 028°41'816.3
2018-Apr-05 21:01N 34°53' E 028°34'816.2
2018-Apr-05 20:30N 34°59' E 028°28'816.1
2018-Apr-05 20:01N 35°05' E 028°21'816.3
2018-Apr-05 19:31N 35°11' E 028°14'816.4
2018-Apr-05 19:01N 35°17' E 028°08'16615.5
2018-Apr-05 08:17N 37°24' E 025°55'415.8
2018-Apr-05 08:00N 37°26' E 025°50'1115.8
2018-Apr-05 07:18N 37°36' E 025°45'516.0
2018-Apr-05 07:00N 37°41' E 025°43'816.1
2018-Apr-05 06:30N 37°48' E 025°39'12015.1
2018-Apr-04 22:33N 39°48' E 025°44'116.0
2018-Apr-04 22:28N 39°49' E 025°45'815.9
2018-Apr-04 21:57N 39°56' E 025°52'916.4
2018-Apr-04 21:23N 40°01' E 026°01'716.9
2018-Apr-04 20:58N 40°02' E 026°11'  
2018-Apr-02 11:35N 37°45' E 025°42'415.7
2018-Apr-02 11:21N 37°41' E 025°43'1115.7
2018-Apr-02 10:40N 37°31' E 025°48'316.1
2018-Apr-02 10:30N 37°29' E 025°49'41414.9
2018-Apr-01 06:46N 34°22' E 033°26'  
2018-Mar-28 23:52N 36°06' E 014°43'615.2
2018-Mar-28 23:28N 36°08' E 014°36'918.5
2018-Mar-28 23:00N 36°10' E 014°25'1020.1
2018-Mar-28 22:30N 36°13' E 014°14'917.6
2018-Mar-28 22:00N 36°17' E 014°04'919.3
2018-Mar-28 21:30N 36°21' E 013°53'917.7
2018-Mar-28 20:59N 36°25' E 013°42'  

Dump ship's entire track history